NZQN/ZQN METAR and TAF weather

Enter ICAO airport designator
Station Type Date Time Source
NZQN METAR UTC NOAA

Error!


Station Type Date Time Source
NZQN Decoded METAR UTC NOAA

Error!

Station Type Date Time Source
NZQN TAF 2022/12/09 23:00 UTC NOAA

TAF
AMD NZQN 092321Z 0923/1012 03005KT 9999 -SHRA FEW050 SCT060 PROB30
TEMPO 1000/1006 5000 SHRA FEW020TCU

Example: see airport list